Aviation Digital Data Service (ADDS)

Output produced by METARs form (0621 UTC 24 January 2019)
found at http://aviationweather.gov/metar/data/
 
KHKS 240553Z AUTO 30013G18KT 10SM OVC014 01/M01 A3003 RMK AO2 SLP164 60000 T00111006 10039 20011 401780011 50009
KHKS 240520Z 2406/2506 30010KT P6SM OVC011 
     FM240730 31008KT P6SM BKN025 
     FM241000 32006KT P6SM SKC 
     FM250200 22003KT P6SM FEW250